Whitefield, NH

3:51 PM EST on March 03, 2015 (GMT -0500)
Kilkenny View Rd | Change Station
CLOSE
Current Station
Personal Weather Station
Location: Jefferson, NH
Elevation: 1093 ft
Nearby Weather Stations
Active Advisory: Winter Weather Advisory

Elev 1093 ft 44.44 °N, 71.51 °W | Updated 7 seconds ago

Clear
Clear
25.3 °F
Feels Like 25 °F
N
0.9
Wind Variable Wind from SSE
Gusts 2.0 mph

Today
High -- | Low -- °F
--% Chance of Precip.
Yesterday
High -- | Low -- °F
Precip. -- in
6:20 AM 5:36 PM
Waxing Gibbous, 97% visible
Pressure 30.17 in
Visibility 10.0 miles
Clouds Clear
Windchill 25 °F
Dew Point 1 °F
Humidity 34%
Rainfall 0.00 in
Snow Depth Not available.
UV 2 out of 12
Pollen .40 out of 12
Air Quality Not available.
Flu Activity Not available.
METAR KHIE 031952Z AUTO 34003KT 10SM CLR M04/M22 A3010 RMK AO2 SLP215 T10391217

More Conditions Fewer Conditions

Pressure 30.17 in
Visibility 10.0 miles
Clouds Clear
Windchill 25 °F
Dew Point 1 °F
Humidity 34%
Rainfall 0.00 in
Snow Depth Not available.
UV 2 out of 12
Pollen .40 out of 12
Air Quality Not available.
Flu Activity Not available.
METAR KHIE 031952Z AUTO 34003KT 10SM CLR M04/M22 A3010 RMK AO2 SLP215 T10391217

More Conditions Fewer Conditions

10-Day Weather Forecast

Almanac

Astronomy

Mar. 03, 2015 Rise Set
Actual Time
Civil Twilight
Nautical Twilight
Astronomical Twilight
Moon
Length of Visible Light
Length of Day
Tomorrow will be .
, % of the Moon is Illuminated

Today's Extremes

State Highs State Lows

Community

WunderPhotos

Upload Photos

1,802,246 photos uploaded!

WunderBlogs® & News

Nearby

Air Quality

  Air Quality AQ Index Pollutant
Not available.

Snow Depth

Station Depth Elevation

Earthquake Activity

City Distance Mag. Time & Date
Minimum magnitude displayed is 2.5.

Coastal Water Temperatures

Place Temperature

Nearby Weather Stations

Winter Weather Advisory
Statement as of 3:06 PM EST on March 03, 2015

... Winter Weather Advisory remains in effect until 7 am EST
Wednesday...

* hazard types... snow

* accumulations... snow accumulation of 3 to 5 inches.

* Timing... snow will begin late today and continue overnight...
ending by sunrise Wednesday.

* Impacts... roads will become snow covered and slippery.

* Winds... south 10 to 20 mph with gusts up to 40 mph.

* Temperatures... in the mid 20s.

Precautionary/preparedness actions...

A Winter Weather Advisory for snow means that periods of snow
will cause primarily travel difficulties. Be prepared for snow
covered roads and limited visibilities... and use caution while
driving.